sensor_id;sensor_type;location;lat;lon;timestamp;P1;durP1;ratioP1;P2;durP2;ratioP2
59054;SDS011;44845;51.444;7.460;2022-12-29T00:00:48;0.95;;;0.50;;
59054;SDS011;44845;51.444;7.460;2022-12-29T00:03:13;0.43;;;0.30;;
59054;SDS011;44845;51.444;7.460;2022-12-29T00:05:38;0.73;;;0.55;;
59054;SDS011;44845;51.444;7.460;2022-12-29T00:08:04;3.70;;;0.40;;
59054;SDS011;44845;51.444;7.460;2022-12-29T00:10:29;0.73;;;0.40;;
59054;SDS011;44845;51.444;7.460;2022-12-29T00:12:54;0.50;;;0.40;;
59054;SDS011;44845;51.444;7.460;2022-12-29T00:15:38;0.63;;;0.43;;
59054;SDS011;44845;51.444;7.460;2022-12-29T00:18:04;0.40;;;0.40;;
59054;SDS011;44845;51.444;7.460;2022-12-29T00:20:32;0.47;;;0.40;;
59054;SDS011;44845;51.444;7.460;2022-12-29T00:23:17;0.43;;;0.40;;
59054;SDS011;44845;51.444;7.460;2022-12-29T00:26:02;0.77;;;0.40;;
59054;SDS011;44845;51.444;7.460;2022-12-29T00:28:47;0.40;;;0.40;;
59054;SDS011;44845;51.444;7.460;2022-12-29T00:31:31;0.47;;;0.30;;
59054;SDS011;44845;51.444;7.460;2022-12-29T00:34:15;1.05;;;0.40;;
59054;SDS011;44845;51.444;7.460;2022-12-29T00:36:58;0.60;;;0.30;;
59054;SDS011;44845;51.444;7.460;2022-12-29T00:39:25;0.43;;;0.30;;
59054;SDS011;44845;51.444;7.460;2022-12-29T00:42:09;0.30;;;0.30;;
59054;SDS011;44845;51.444;7.460;2022-12-29T00:44:52;0.60;;;0.30;;
59054;SDS011;44845;51.444;7.460;2022-12-29T00:47:18;0.50;;;0.38;;
59054;SDS011;44845;51.444;7.460;2022-12-29T00:49:43;0.30;;;0.30;;
59054;SDS011;44845;51.444;7.460;2022-12-29T00:52:12;0.20;;;0.20;;
59054;SDS011;44845;51.444;7.460;2022-12-29T00:54:38;1.52;;;0.60;;
59054;SDS011;44845;51.444;7.460;2022-12-29T00:57:05;1.38;;;0.20;;
59054;SDS011;44845;51.444;7.460;2022-12-29T00:59:32;0.20;;;0.20;;
59054;SDS011;44845;51.444;7.460;2022-12-29T01:01:57;0.20;;;0.20;;
59054;SDS011;44845;51.444;7.460;2022-12-29T01:04:24;3.08;;;0.20;;
59054;SDS011;44845;51.444;7.460;2022-12-29T01:06:50;1.38;;;0.30;;
59054;SDS011;44845;51.444;7.460;2022-12-29T01:09:17;1.00;;;0.40;;
59054;SDS011;44845;51.444;7.460;2022-12-29T01:12:02;0.20;;;0.20;;
59054;SDS011;44845;51.444;7.460;2022-12-29T01:14:28;0.20;;;0.20;;
59054;SDS011;44845;51.444;7.460;2022-12-29T01:16:54;0.73;;;0.20;;
59054;SDS011;44845;51.444;7.460;2022-12-29T01:19:21;0.50;;;0.28;;
59054;SDS011;44845;51.444;7.460;2022-12-29T01:21:46;0.60;;;0.20;;
59054;SDS011;44845;51.444;7.460;2022-12-29T01:24:13;1.67;;;0.10;;
59054;SDS011;44845;51.444;7.460;2022-12-29T01:26:39;0.50;;;0.20;;
59054;SDS011;44845;51.444;7.460;2022-12-29T01:29:05;1.48;;;0.20;;
59054;SDS011;44845;51.444;7.460;2022-12-29T01:31:30;0.20;;;0.17;;
59054;SDS011;44845;51.444;7.460;2022-12-29T01:33:56;0.10;;;0.10;;
59054;SDS011;44845;51.444;7.460;2022-12-29T01:36:21;0.10;;;0.10;;
59054;SDS011;44845;51.444;7.460;2022-12-29T01:38:47;0.10;;;0.10;;
59054;SDS011;44845;51.444;7.460;2022-12-29T01:41:13;0.50;;;0.20;;
59054;SDS011;44845;51.444;7.460;2022-12-29T01:49:15;0.70;;;0.10;;
59054;SDS011;44845;51.444;7.460;2022-12-29T01:52:03;0.15;;;0.10;;
59054;SDS011;44845;51.444;7.460;2022-12-29T01:54:32;1.85;;;0.38;;
59054;SDS011;44845;51.444;7.460;2022-12-29T01:57:03;3.83;;;0.15;;
59054;SDS011;44845;51.444;7.460;2022-12-29T01:59:34;0.68;;;0.20;;
59054;SDS011;44845;51.444;7.460;2022-12-29T02:02:02;0.20;;;0.20;;
59054;SDS011;44845;51.444;7.460;2022-12-29T02:04:29;0.10;;;0.10;;
59054;SDS011;44845;51.444;7.460;2022-12-29T02:06:59;0.85;;;0.20;;
59054;SDS011;44845;51.444;7.460;2022-12-29T02:09:32;1.13;;;0.20;;
59054;SDS011;44845;51.444;7.460;2022-12-29T02:11:58;0.30;;;0.20;;
59054;SDS011;44845;51.444;7.460;2022-12-29T02:14:24;0.10;;;0.10;;
59054;SDS011;44845;51.444;7.460;2022-12-29T02:16:58;0.13;;;0.13;;
59054;SDS011;44845;51.444;7.460;2022-12-29T02:22:31;1.00;;;0.13;;
59054;SDS011;44845;51.444;7.460;2022-12-29T02:27:55;0.45;;;0.13;;
59054;SDS011;44845;51.444;7.460;2022-12-29T02:34:06;0.10;;;0.10;;
59054;SDS011;44845;51.444;7.460;2022-12-29T02:36:45;0.45;;;0.20;;
59054;SDS011;44845;51.444;7.460;2022-12-29T02:39:28;2.83;;;0.20;;
59054;SDS011;44845;51.444;7.460;2022-12-29T02:42:34;0.38;;;0.10;;
59054;SDS011;44845;51.444;7.460;2022-12-29T02:47:48;0.20;;;0.17;;
59054;SDS011;44845;51.444;7.460;2022-12-29T02:50:26;0.10;;;0.10;;
59054;SDS011;44845;51.444;7.460;2022-12-29T02:53:13;0.17;;;0.10;;
59054;SDS011;44845;51.444;7.460;2022-12-29T02:55:48;0.30;;;0.20;;
59054;SDS011;44845;51.444;7.460;2022-12-29T02:58:16;1.85;;;0.20;;
59054;SDS011;44845;51.444;7.460;2022-12-29T03:14:17;1.20;;;0.20;;
59054;SDS011;44845;51.444;7.460;2022-12-29T03:17:54;0.88;;;0.20;;
59054;SDS011;44845;51.444;7.460;2022-12-29T03:20:21;0.73;;;0.30;;
59054;SDS011;44845;51.444;7.460;2022-12-29T03:22:51;0.52;;;0.30;;
59054;SDS011;44845;51.444;7.460;2022-12-29T03:25:25;1.33;;;0.22;;
59054;SDS011;44845;51.444;7.460;2022-12-29T03:27:56;1.65;;;0.40;;
59054;SDS011;44845;51.444;7.460;2022-12-29T03:30:26;0.73;;;0.47;;
59054;SDS011;44845;51.444;7.460;2022-12-29T03:32:55;0.93;;;0.20;;
59054;SDS011;44845;51.444;7.460;2022-12-29T03:35:25;1.95;;;0.40;;
59054;SDS011;44845;51.444;7.460;2022-12-29T03:40:52;0.88;;;0.30;;
59054;SDS011;44845;51.444;7.460;2022-12-29T03:43:20;0.85;;;0.30;;
59054;SDS011;44845;51.444;7.460;2022-12-29T03:45:46;0.50;;;0.20;;
59054;SDS011;44845;51.444;7.460;2022-12-29T03:48:11;0.60;;;0.25;;
59054;SDS011;44845;51.444;7.460;2022-12-29T03:50:37;2.45;;;0.52;;
59054;SDS011;44845;51.444;7.460;2022-12-29T03:53:02;0.45;;;0.20;;
59054;SDS011;44845;51.444;7.460;2022-12-29T03:55:28;1.23;;;0.30;;
59054;SDS011;44845;51.444;7.460;2022-12-29T03:57:53;0.32;;;0.22;;
59054;SDS011;44845;51.444;7.460;2022-12-29T04:00:19;0.38;;;0.30;;
59054;SDS011;44845;51.444;7.460;2022-12-29T04:02:44;1.27;;;0.30;;
59054;SDS011;44845;51.444;7.460;2022-12-29T04:05:09;1.95;;;0.22;;
59054;SDS011;44845;51.444;7.460;2022-12-29T04:07:35;0.63;;;0.30;;
59054;SDS011;44845;51.444;7.460;2022-12-29T04:10:00;0.30;;;0.30;;
59054;SDS011;44845;51.444;7.460;2022-12-29T04:12:25;0.20;;;0.20;;
59054;SDS011;44845;51.444;7.460;2022-12-29T04:14:50;0.68;;;0.32;;
59054;SDS011;44845;51.444;7.460;2022-12-29T04:17:16;0.95;;;0.30;;
59054;SDS011;44845;51.444;7.460;2022-12-29T04:19:41;1.17;;;0.30;;
59054;SDS011;44845;51.444;7.460;2022-12-29T04:22:06;2.05;;;0.15;;
59054;SDS011;44845;51.444;7.460;2022-12-29T04:24:32;1.08;;;0.30;;
59054;SDS011;44845;51.444;7.460;2022-12-29T04:26:57;0.50;;;0.28;;
59054;SDS011;44845;51.444;7.460;2022-12-29T04:29:22;1.20;;;0.20;;
59054;SDS011;44845;51.444;7.460;2022-12-29T04:31:48;1.75;;;0.20;;
59054;SDS011;44845;51.444;7.460;2022-12-29T04:34:13;1.08;;;0.30;;
59054;SDS011;44845;51.444;7.460;2022-12-29T04:36:39;0.40;;;0.20;;
59054;SDS011;44845;51.444;7.460;2022-12-29T04:39:05;0.50;;;0.20;;
59054;SDS011;44845;51.444;7.460;2022-12-29T04:41:31;0.30;;;0.20;;
59054;SDS011;44845;51.444;7.460;2022-12-29T04:43:56;0.70;;;0.20;;
59054;SDS011;44845;51.444;7.460;2022-12-29T04:46:21;0.30;;;0.20;;
59054;SDS011;44845;51.444;7.460;2022-12-29T04:48:46;0.30;;;0.20;;
59054;SDS011;44845;51.444;7.460;2022-12-29T04:51:12;0.95;;;0.22;;
59054;SDS011;44845;51.444;7.460;2022-12-29T04:53:38;0.98;;;0.20;;
59054;SDS011;44845;51.444;7.460;2022-12-29T04:56:03;0.68;;;0.20;;
59054;SDS011;44845;51.444;7.460;2022-12-29T04:58:29;0.32;;;0.20;;
59054;SDS011;44845;51.444;7.460;2022-12-29T05:00:54;1.10;;;0.28;;
59054;SDS011;44845;51.444;7.460;2022-12-29T05:03:19;0.98;;;0.30;;
59054;SDS011;44845;51.444;7.460;2022-12-29T05:05:45;0.80;;;0.30;;
59054;SDS011;44845;51.444;7.460;2022-12-29T05:08:10;1.30;;;0.30;;
59054;SDS011;44845;51.444;7.460;2022-12-29T05:10:36;1.00;;;0.20;;
59054;SDS011;44845;51.444;7.460;2022-12-29T05:13:01;0.95;;;0.20;;
59054;SDS011;44845;51.444;7.460;2022-12-29T05:15:26;0.73;;;0.28;;
59054;SDS011;44845;51.444;7.460;2022-12-29T05:17:52;0.45;;;0.30;;
59054;SDS011;44845;51.444;7.460;2022-12-29T05:20:17;2.30;;;0.40;;
59054;SDS011;44845;51.444;7.460;2022-12-29T05:22:43;0.70;;;0.47;;
59054;SDS011;44845;51.444;7.460;2022-12-29T05:25:08;0.32;;;0.30;;
59054;SDS011;44845;51.444;7.460;2022-12-29T05:27:34;0.40;;;0.35;;
59054;SDS011;44845;51.444;7.460;2022-12-29T05:29:59;0.20;;;0.20;;
59054;SDS011;44845;51.444;7.460;2022-12-29T05:32:25;2.05;;;0.50;;
59054;SDS011;44845;51.444;7.460;2022-12-29T05:34:50;0.45;;;0.40;;
59054;SDS011;44845;51.444;7.460;2022-12-29T05:37:15;1.02;;;0.50;;
59054;SDS011;44845;51.444;7.460;2022-12-29T05:39:41;1.05;;;0.50;;
59054;SDS011;44845;51.444;7.460;2022-12-29T05:42:06;0.40;;;0.20;;
59054;SDS011;44845;51.444;7.460;2022-12-29T05:44:32;2.83;;;0.30;;
59054;SDS011;44845;51.444;7.460;2022-12-29T05:46:57;0.20;;;0.20;;
59054;SDS011;44845;51.444;7.460;2022-12-29T05:49:22;0.38;;;0.38;;
59054;SDS011;44845;51.444;7.460;2022-12-29T05:51:48;0.52;;;0.30;;
59054;SDS011;44845;51.444;7.460;2022-12-29T05:54:13;0.85;;;0.40;;
59054;SDS011;44845;51.444;7.460;2022-12-29T05:56:38;0.77;;;0.30;;
59054;SDS011;44845;51.444;7.460;2022-12-29T05:59:04;0.77;;;0.50;;
59054;SDS011;44845;51.444;7.460;2022-12-29T06:01:29;0.20;;;0.17;;
59054;SDS011;44845;51.444;7.460;2022-12-29T06:03:54;0.93;;;0.30;;
59054;SDS011;44845;51.444;7.460;2022-12-29T06:06:20;1.05;;;0.20;;
59054;SDS011;44845;51.444;7.460;2022-12-29T06:08:45;1.23;;;0.40;;
59054;SDS011;44845;51.444;7.460;2022-12-29T06:11:11;2.00;;;0.30;;
59054;SDS011;44845;51.444;7.460;2022-12-29T06:13:36;1.60;;;0.30;;
59054;SDS011;44845;51.444;7.460;2022-12-29T06:16:01;1.73;;;0.40;;
59054;SDS011;44845;51.444;7.460;2022-12-29T06:18:27;1.05;;;0.43;;
59054;SDS011;44845;51.444;7.460;2022-12-29T06:20:52;1.70;;;0.30;;
59054;SDS011;44845;51.444;7.460;2022-12-29T06:23:18;1.48;;;0.30;;
59054;SDS011;44845;51.444;7.460;2022-12-29T06:25:43;0.98;;;0.73;;
59054;SDS011;44845;51.444;7.460;2022-12-29T06:28:09;2.30;;;0.40;;
59054;SDS011;44845;51.444;7.460;2022-12-29T06:30:35;2.95;;;0.30;;
59054;SDS011;44845;51.444;7.460;2022-12-29T06:33:01;0.82;;;0.25;;
59054;SDS011;44845;51.444;7.460;2022-12-29T06:35:26;1.00;;;0.30;;
59054;SDS011;44845;51.444;7.460;2022-12-29T06:37:52;1.30;;;0.30;;
59054;SDS011;44845;51.444;7.460;2022-12-29T06:40:17;2.88;;;0.40;;
59054;SDS011;44845;51.444;7.460;2022-12-29T06:42:42;0.57;;;0.32;;
59054;SDS011;44845;51.444;7.460;2022-12-29T06:45:08;1.13;;;0.22;;
59054;SDS011;44845;51.444;7.460;2022-12-29T06:47:34;1.85;;;0.40;;
59054;SDS011;44845;51.444;7.460;2022-12-29T06:50:00;1.48;;;0.60;;
59054;SDS011;44845;51.444;7.460;2022-12-29T06:52:26;1.45;;;0.45;;
59054;SDS011;44845;51.444;7.460;2022-12-29T06:54:51;1.75;;;0.38;;
59054;SDS011;44845;51.444;7.460;2022-12-29T06:57:16;2.53;;;0.40;;
59054;SDS011;44845;51.444;7.460;2022-12-29T06:59:42;2.88;;;0.55;;
59054;SDS011;44845;51.444;7.460;2022-12-29T07:02:09;0.68;;;0.40;;
59054;SDS011;44845;51.444;7.460;2022-12-29T07:04:35;3.35;;;0.50;;
59054;SDS011;44845;51.444;7.460;2022-12-29T07:07:01;3.78;;;0.40;;
59054;SDS011;44845;51.444;7.460;2022-12-29T07:09:26;4.25;;;0.38;;
59054;SDS011;44845;51.444;7.460;2022-12-29T07:11:51;1.90;;;0.40;;
59054;SDS011;44845;51.444;7.460;2022-12-29T07:14:17;3.13;;;0.50;;
59054;SDS011;44845;51.444;7.460;2022-12-29T07:16:42;2.28;;;0.40;;
59054;SDS011;44845;51.444;7.460;2022-12-29T07:19:07;1.25;;;0.30;;
59054;SDS011;44845;51.444;7.460;2022-12-29T07:21:33;2.25;;;0.45;;
59054;SDS011;44845;51.444;7.460;2022-12-29T07:23:58;1.80;;;0.30;;
59054;SDS011;44845;51.444;7.460;2022-12-29T07:26:23;6.55;;;0.68;;
59054;SDS011;44845;51.444;7.460;2022-12-29T07:28:49;5.63;;;0.52;;
59054;SDS011;44845;51.444;7.460;2022-12-29T07:31:15;2.47;;;0.50;;
59054;SDS011;44845;51.444;7.460;2022-12-29T07:33:45;2.45;;;0.43;;
59054;SDS011;44845;51.444;7.460;2022-12-29T07:36:12;1.85;;;0.60;;
59054;SDS011;44845;51.444;7.460;2022-12-29T07:38:38;3.47;;;0.32;;
59054;SDS011;44845;51.444;7.460;2022-12-29T07:41:04;2.20;;;0.40;;
59054;SDS011;44845;51.444;7.460;2022-12-29T07:43:29;1.80;;;0.40;;
59054;SDS011;44845;51.444;7.460;2022-12-29T07:45:54;1.92;;;0.30;;
59054;SDS011;44845;51.444;7.460;2022-12-29T07:48:20;2.10;;;0.38;;
59054;SDS011;44845;51.444;7.460;2022-12-29T07:50:45;4.43;;;0.80;;
59054;SDS011;44845;51.444;7.460;2022-12-29T07:53:11;2.85;;;0.40;;
59054;SDS011;44845;51.444;7.460;2022-12-29T07:55:36;2.45;;;0.50;;
59054;SDS011;44845;51.444;7.460;2022-12-29T07:58:01;3.03;;;0.50;;
59054;SDS011;44845;51.444;7.460;2022-12-29T08:00:27;6.63;;;0.65;;
59054;SDS011;44845;51.444;7.460;2022-12-29T08:02:52;1.88;;;0.40;;
59054;SDS011;44845;51.444;7.460;2022-12-29T08:05:18;4.85;;;0.57;;
59054;SDS011;44845;51.444;7.460;2022-12-29T08:07:44;1.77;;;0.40;;
59054;SDS011;44845;51.444;7.460;2022-12-29T08:10:11;5.70;;;0.63;;
59054;SDS011;44845;51.444;7.460;2022-12-29T08:12:37;1.67;;;0.40;;
59054;SDS011;44845;51.444;7.460;2022-12-29T08:15:04;5.10;;;0.50;;
59054;SDS011;44845;51.444;7.460;2022-12-29T08:17:30;4.00;;;0.63;;
59054;SDS011;44845;51.444;7.460;2022-12-29T08:19:55;3.95;;;0.70;;
59054;SDS011;44845;51.444;7.460;2022-12-29T08:22:20;4.03;;;0.50;;
59054;SDS011;44845;51.444;7.460;2022-12-29T08:24:46;2.33;;;0.50;;
59054;SDS011;44845;51.444;7.460;2022-12-29T08:27:11;1.48;;;0.50;;
59054;SDS011;44845;51.444;7.460;2022-12-29T08:29:37;1.77;;;0.60;;
59054;SDS011;44845;51.444;7.460;2022-12-29T08:32:02;3.75;;;0.73;;
59054;SDS011;44845;51.444;7.460;2022-12-29T08:34:27;3.63;;;0.90;;
59054;SDS011;44845;51.444;7.460;2022-12-29T08:36:53;5.75;;;0.65;;
59054;SDS011;44845;51.444;7.460;2022-12-29T08:39:18;3.25;;;0.68;;
59054;SDS011;44845;51.444;7.460;2022-12-29T08:41:43;5.32;;;0.82;;
59054;SDS011;44845;51.444;7.460;2022-12-29T08:44:09;3.42;;;0.50;;
59054;SDS011;44845;51.444;7.460;2022-12-29T08:46:34;3.42;;;0.63;;
59054;SDS011;44845;51.444;7.460;2022-12-29T08:49:00;5.57;;;1.00;;
59054;SDS011;44845;51.444;7.460;2022-12-29T08:51:25;3.13;;;0.60;;
59054;SDS011;44845;51.444;7.460;2022-12-29T08:53:51;3.05;;;0.50;;
59054;SDS011;44845;51.444;7.460;2022-12-29T08:56:16;6.85;;;1.00;;
59054;SDS011;44845;51.444;7.460;2022-12-29T08:58:42;4.60;;;0.52;;
59054;SDS011;44845;51.444;7.460;2022-12-29T09:01:08;3.45;;;0.60;;
59054;SDS011;44845;51.444;7.460;2022-12-29T09:03:34;1.75;;;0.40;;
59054;SDS011;44845;51.444;7.460;2022-12-29T09:05:59;4.30;;;0.60;;
59054;SDS011;44845;51.444;7.460;2022-12-29T09:08:25;3.42;;;0.73;;
59054;SDS011;44845;51.444;7.460;2022-12-29T09:10:50;2.63;;;0.60;;
59054;SDS011;44845;51.444;7.460;2022-12-29T09:13:16;3.42;;;0.65;;
59054;SDS011;44845;51.444;7.460;2022-12-29T09:15:42;3.65;;;0.70;;
59054;SDS011;44845;51.444;7.460;2022-12-29T09:18:08;3.42;;;0.70;;
59054;SDS011;44845;51.444;7.460;2022-12-29T09:20:34;4.47;;;0.65;;
59054;SDS011;44845;51.444;7.460;2022-12-29T09:23:00;3.75;;;0.60;;
59054;SDS011;44845;51.444;7.460;2022-12-29T09:25:26;3.50;;;0.98;;
59054;SDS011;44845;51.444;7.460;2022-12-29T09:27:52;3.67;;;0.80;;
59054;SDS011;44845;51.444;7.460;2022-12-29T09:30:18;1.58;;;0.50;;
59054;SDS011;44845;51.444;7.460;2022-12-29T09:32:44;2.65;;;0.82;;
59054;SDS011;44845;51.444;7.460;2022-12-29T09:35:10;4.90;;;0.82;;
59054;SDS011;44845;51.444;7.460;2022-12-29T09:37:35;2.45;;;0.57;;
59054;SDS011;44845;51.444;7.460;2022-12-29T09:40:01;5.07;;;0.85;;
59054;SDS011;44845;51.444;7.460;2022-12-29T09:42:32;4.18;;;0.90;;
59054;SDS011;44845;51.444;7.460;2022-12-29T09:47:35;2.00;;;0.57;;
59054;SDS011;44845;51.444;7.460;2022-12-29T09:50:17;5.65;;;0.70;;
59054;SDS011;44845;51.444;7.460;2022-12-29T09:52:50;4.00;;;0.80;;
59054;SDS011;44845;51.444;7.460;2022-12-29T09:55:23;6.57;;;1.03;;
59054;SDS011;44845;51.444;7.460;2022-12-29T09:57:56;3.78;;;0.90;;
59054;SDS011;44845;51.444;7.460;2022-12-29T10:00:37;2.92;;;0.52;;
59054;SDS011;44845;51.444;7.460;2022-12-29T10:03:18;5.40;;;0.60;;
59054;SDS011;44845;51.444;7.460;2022-12-29T10:05:47;4.28;;;0.65;;
59054;SDS011;44845;51.444;7.460;2022-12-29T10:14:29;3.25;;;0.68;;
59054;SDS011;44845;51.444;7.460;2022-12-29T10:25:19;3.50;;;0.52;;
59054;SDS011;44845;51.444;7.460;2022-12-29T10:27:49;2.45;;;0.80;;
59054;SDS011;44845;51.444;7.460;2022-12-29T10:30:18;3.20;;;0.68;;
59054;SDS011;44845;51.444;7.460;2022-12-29T10:32:51;2.95;;;0.70;;
59054;SDS011;44845;51.444;7.460;2022-12-29T10:35:21;6.13;;;1.10;;
59054;SDS011;44845;51.444;7.460;2022-12-29T10:37:50;5.47;;;0.55;;
59054;SDS011;44845;51.444;7.460;2022-12-29T10:43:34;6.53;;;0.90;;
59054;SDS011;44845;51.444;7.460;2022-12-29T10:46:11;7.40;;;0.80;;
59054;SDS011;44845;51.444;7.460;2022-12-29T10:48:40;4.60;;;0.75;;
59054;SDS011;44845;51.444;7.460;2022-12-29T10:51:05;5.32;;;1.00;;
59054;SDS011;44845;51.444;7.460;2022-12-29T10:53:36;6.40;;;0.93;;
59054;SDS011;44845;51.444;7.460;2022-12-29T10:56:17;4.35;;;0.63;;
59054;SDS011;44845;51.444;7.460;2022-12-29T10:58:58;3.17;;;0.85;;
59054;SDS011;44845;51.444;7.460;2022-12-29T11:01:33;5.60;;;0.97;;
59054;SDS011;44845;51.444;7.460;2022-12-29T11:04:07;4.60;;;0.80;;
59054;SDS011;44845;51.444;7.460;2022-12-29T11:06:58;3.08;;;0.68;;
59054;SDS011;44845;51.444;7.460;2022-12-29T11:09:29;5.95;;;0.93;;
59054;SDS011;44845;51.444;7.460;2022-12-29T11:11:57;6.32;;;0.93;;
59054;SDS011;44845;51.444;7.460;2022-12-29T11:14:27;7.90;;;0.93;;
59054;SDS011;44845;51.444;7.460;2022-12-29T11:16:58;6.35;;;1.17;;
59054;SDS011;44845;51.444;7.460;2022-12-29T11:19:29;5.70;;;0.90;;
59054;SDS011;44845;51.444;7.460;2022-12-29T11:24:53;5.03;;;1.00;;
59054;SDS011;44845;51.444;7.460;2022-12-29T11:27:20;2.70;;;0.70;;
59054;SDS011;44845;51.444;7.460;2022-12-29T11:29:48;5.28;;;1.02;;
59054;SDS011;44845;51.444;7.460;2022-12-29T11:32:20;5.32;;;0.80;;
59054;SDS011;44845;51.444;7.460;2022-12-29T11:34:56;4.93;;;0.75;;
59054;SDS011;44845;51.444;7.460;2022-12-29T11:42:50;8.77;;;0.90;;
59054;SDS011;44845;51.444;7.460;2022-12-29T11:45:21;4.35;;;0.90;;
59054;SDS011;44845;51.444;7.460;2022-12-29T11:47:50;5.65;;;0.70;;
59054;SDS011;44845;51.444;7.460;2022-12-29T11:50:18;4.93;;;0.85;;
59054;SDS011;44845;51.444;7.460;2022-12-29T11:52:50;4.85;;;0.65;;
59054;SDS011;44845;51.444;7.460;2022-12-29T11:55:24;3.50;;;1.00;;
59054;SDS011;44845;51.444;7.460;2022-12-29T11:57:52;5.05;;;0.68;;
59054;SDS011;44845;51.444;7.460;2022-12-29T12:00:19;7.28;;;1.10;;
59054;SDS011;44845;51.444;7.460;2022-12-29T12:08:17;6.10;;;0.70;;
59054;SDS011;44845;51.444;7.460;2022-12-29T12:11:04;6.80;;;0.80;;
59054;SDS011;44845;51.444;7.460;2022-12-29T12:16:37;2.70;;;0.73;;
59054;SDS011;44845;51.444;7.460;2022-12-29T12:22:48;3.25;;;0.70;;
59054;SDS011;44845;51.444;7.460;2022-12-29T12:24:58;5.43;;;0.73;;
59054;SDS011;44845;51.444;7.460;2022-12-29T12:27:37;3.67;;;0.80;;
59054;SDS011;44845;51.444;7.460;2022-12-29T12:30:10;4.68;;;0.70;;
59054;SDS011;44845;51.444;7.460;2022-12-29T12:35:11;5.57;;;0.90;;
59054;SDS011;44845;51.444;7.460;2022-12-29T12:37:44;7.45;;;0.90;;
59054;SDS011;44845;51.444;7.460;2022-12-29T12:45:55;6.93;;;0.88;;
59054;SDS011;44845;51.444;7.460;2022-12-29T12:51:47;5.65;;;0.68;;
59054;SDS011;44845;51.444;7.460;2022-12-29T12:54:30;5.07;;;0.82;;
59054;SDS011;44845;51.444;7.460;2022-12-29T12:59:49;7.17;;;1.03;;
59054;SDS011;44845;51.444;7.460;2022-12-29T13:02:28;5.65;;;0.90;;
59054;SDS011;44845;51.444;7.460;2022-12-29T13:05:06;6.72;;;0.80;;
59054;SDS011;44845;51.444;7.460;2022-12-29T13:10:52;3.35;;;0.88;;
59054;SDS011;44845;51.444;7.460;2022-12-29T13:13:29;5.53;;;0.95;;
59054;SDS011;44845;51.444;7.460;2022-12-29T13:19:13;3.92;;;0.70;;
59054;SDS011;44845;51.444;7.460;2022-12-29T13:21:53;7.60;;;0.93;;
59054;SDS011;44845;51.444;7.460;2022-12-29T13:24:32;4.55;;;1.90;;
59054;SDS011;44845;51.444;7.460;2022-12-29T13:27:26;5.78;;;0.75;;
59054;SDS011;44845;51.444;7.460;2022-12-29T13:30:19;10.10;;;1.27;;
59054;SDS011;44845;51.444;7.460;2022-12-29T13:38:04;5.30;;;0.88;;
59054;SDS011;44845;51.444;7.460;2022-12-29T13:40:36;6.85;;;1.17;;
59054;SDS011;44845;51.444;7.460;2022-12-29T13:43:06;5.78;;;0.82;;
59054;SDS011;44845;51.444;7.460;2022-12-29T13:45:32;5.57;;;0.70;;
59054;SDS011;44845;51.444;7.460;2022-12-29T13:48:08;10.63;;;1.20;;
59054;SDS011;44845;51.444;7.460;2022-12-29T13:50:36;6.30;;;0.88;;
59054;SDS011;44845;51.444;7.460;2022-12-29T13:53:14;3.13;;;0.63;;
59054;SDS011;44845;51.444;7.460;2022-12-29T13:55:55;9.57;;;1.40;;
59054;SDS011;44845;51.444;7.460;2022-12-29T13:58:33;5.00;;;1.00;;
59054;SDS011;44845;51.444;7.460;2022-12-29T14:03:58;5.03;;;0.65;;
59054;SDS011;44845;51.444;7.460;2022-12-29T14:06:29;3.53;;;0.65;;
59054;SDS011;44845;51.444;7.460;2022-12-29T14:11:22;5.22;;;0.70;;
59054;SDS011;44845;51.444;7.460;2022-12-29T14:13:53;4.07;;;1.58;;
59054;SDS011;44845;51.444;7.460;2022-12-29T14:18:51;5.15;;;0.95;;
59054;SDS011;44845;51.444;7.460;2022-12-29T14:21:20;6.25;;;1.10;;
59054;SDS011;44845;51.444;7.460;2022-12-29T14:23:49;5.18;;;0.57;;
59054;SDS011;44845;51.444;7.460;2022-12-29T14:26:16;6.32;;;1.00;;
59054;SDS011;44845;51.444;7.460;2022-12-29T14:31:49;5.25;;;1.27;;
59054;SDS011;44845;51.444;7.460;2022-12-29T14:39:37;3.47;;;0.93;;
59054;SDS011;44845;51.444;7.460;2022-12-29T14:44:34;6.20;;;0.82;;
59054;SDS011;44845;51.444;7.460;2022-12-29T14:47:16;4.90;;;0.60;;
59054;SDS011;44845;51.444;7.460;2022-12-29T14:50:21;3.78;;;0.63;;
59054;SDS011;44845;51.444;7.460;2022-12-29T14:53:10;4.68;;;0.80;;
59054;SDS011;44845;51.444;7.460;2022-12-29T14:56:08;4.13;;;0.60;;
59054;SDS011;44845;51.444;7.460;2022-12-29T14:58:45;6.07;;;0.93;;
59054;SDS011;44845;51.444;7.460;2022-12-29T15:01:18;3.85;;;0.85;;
59054;SDS011;44845;51.444;7.460;2022-12-29T15:03:50;2.78;;;0.70;;
59054;SDS011;44845;51.444;7.460;2022-12-29T15:06:19;6.85;;;0.95;;
59054;SDS011;44845;51.444;7.460;2022-12-29T15:09:06;2.05;;;0.52;;
59054;SDS011;44845;51.444;7.460;2022-12-29T15:11:50;5.35;;;0.73;;
59054;SDS011;44845;51.444;7.460;2022-12-29T15:14:51;4.30;;;0.57;;
59054;SDS011;44845;51.444;7.460;2022-12-29T15:17:24;3.50;;;0.63;;
59054;SDS011;44845;51.444;7.460;2022-12-29T15:19:54;3.97;;;0.70;;
59054;SDS011;44845;51.444;7.460;2022-12-29T15:22:20;2.78;;;0.60;;
59054;SDS011;44845;51.444;7.460;2022-12-29T15:24:46;4.22;;;0.70;;
59054;SDS011;44845;51.444;7.460;2022-12-29T15:27:14;2.30;;;0.55;;
59054;SDS011;44845;51.444;7.460;2022-12-29T15:29:44;2.88;;;0.80;;
59054;SDS011;44845;51.444;7.460;2022-12-29T15:34:58;3.60;;;0.40;;
59054;SDS011;44845;51.444;7.460;2022-12-29T15:39:57;1.70;;;0.70;;
59054;SDS011;44845;51.444;7.460;2022-12-29T15:45:16;4.03;;;0.80;;
59054;SDS011;44845;51.444;7.460;2022-12-29T15:47:42;3.28;;;0.73;;
59054;SDS011;44845;51.444;7.460;2022-12-29T15:50:17;6.25;;;0.70;;
59054;SDS011;44845;51.444;7.460;2022-12-29T15:52:51;3.85;;;0.65;;
59054;SDS011;44845;51.444;7.460;2022-12-29T15:55:20;4.40;;;1.02;;
59054;SDS011;44845;51.444;7.460;2022-12-29T15:57:55;2.90;;;0.80;;
59054;SDS011;44845;51.444;7.460;2022-12-29T16:00:23;5.57;;;0.80;;
59054;SDS011;44845;51.444;7.460;2022-12-29T16:02:51;1.77;;;0.85;;
59054;SDS011;44845;51.444;7.460;2022-12-29T16:05:18;4.63;;;0.77;;
59054;SDS011;44845;51.444;7.460;2022-12-29T16:08:45;3.40;;;1.10;;
59054;SDS011;44845;51.444;7.460;2022-12-29T16:10:56;5.55;;;0.80;;
59054;SDS011;44845;51.444;7.460;2022-12-29T16:15:59;6.13;;;1.00;;
59054;SDS011;44845;51.444;7.460;2022-12-29T16:18:28;4.32;;;0.70;;
59054;SDS011;44845;51.444;7.460;2022-12-29T16:20:59;2.38;;;1.13;;
59054;SDS011;44845;51.444;7.460;2022-12-29T16:23:25;7.28;;;0.88;;
59054;SDS011;44845;51.444;7.460;2022-12-29T16:25:53;3.67;;;0.70;;
59054;SDS011;44845;51.444;7.460;2022-12-29T16:28:21;4.70;;;1.02;;
59054;SDS011;44845;51.444;7.460;2022-12-29T16:33:57;6.43;;;1.25;;
59054;SDS011;44845;51.444;7.460;2022-12-29T16:38:51;4.85;;;0.93;;
59054;SDS011;44845;51.444;7.460;2022-12-29T16:41:34;3.50;;;0.82;;
59054;SDS011;44845;51.444;7.460;2022-12-29T16:44:12;6.65;;;1.00;;
59054;SDS011;44845;51.444;7.460;2022-12-29T16:46:44;4.35;;;0.75;;
59054;SDS011;44845;51.444;7.460;2022-12-29T16:49:29;5.60;;;0.82;;
59054;SDS011;44845;51.444;7.460;2022-12-29T16:51:56;3.83;;;0.80;;
59054;SDS011;44845;51.444;7.460;2022-12-29T16:54:23;6.82;;;0.85;;
59054;SDS011;44845;51.444;7.460;2022-12-29T16:56:50;6.60;;;0.95;;
59054;SDS011;44845;51.444;7.460;2022-12-29T17:01:59;3.13;;;0.82;;
59054;SDS011;44845;51.444;7.460;2022-12-29T17:04:30;3.80;;;0.73;;
59054;SDS011;44845;51.444;7.460;2022-12-29T17:06:55;6.13;;;0.95;;
59054;SDS011;44845;51.444;7.460;2022-12-29T17:09:21;5.78;;;0.90;;
59054;SDS011;44845;51.444;7.460;2022-12-29T17:11:49;5.65;;;1.27;;
59054;SDS011;44845;51.444;7.460;2022-12-29T17:17:09;4.35;;;1.10;;
59054;SDS011;44845;51.444;7.460;2022-12-29T17:19:40;5.32;;;1.08;;
59054;SDS011;44845;51.444;7.460;2022-12-29T17:22:17;7.47;;;1.08;;
59054;SDS011;44845;51.444;7.460;2022-12-29T17:24:45;6.70;;;0.93;;